Time;durP1;ratioP1;P1;durP2;ratioP2;P2;SDS_P1;SDS_P2;PMS_P1;PMS_P2;Temp;Humidity;BMP_temperature;BMP_pressure;BME280_temperature;BME280_humidity;BME280_pressure;Samples;Min_cycle;Max_cycle;Signal;HPM_P1;HPM_P2
2023/02/09 00:01:37;;;;;;;;;18.00;17.00;;;;;;;;118094;1177;25706;-60
2023/02/09 00:04:06;;;;;;;;;19.00;16.00;;;;;;;;118058;1186;25450;-60
2023/02/09 00:06:35;;;;;;;;;18.00;15.00;;;;;;;;118047;1188;25359;-60
2023/02/09 00:09:04;;;;;;;;;16.33;14.00;;;;;;;;118079;1190;25286;-60
2023/02/09 00:14:19;;;;;;;;;16.50;16.00;;;;;;;;117949;1177;25473;-60
2023/02/09 00:16:50;;;;;;;;;19.00;15.00;;;;;;;;118062;1190;25004;-60
2023/02/09 00:19:20;;;;;;;;;20.50;17.50;;;;;;;;117921;1182;25729;-61
2023/02/09 00:21:48;;;;;;;;;18.67;15.33;;;;;;;;117915;1178;25519;-60
2023/02/09 00:24:17;;;;;;;;;14.67;14.00;;;;;;;;117909;1180;24903;-61
2023/02/09 00:26:46;;;;;;;;;13.75;11.00;;;;;;;;117943;1180;26353;-60
2023/02/09 00:29:15;;;;;;;;;14.67;11.00;;;;;;;;117944;1177;25512;-61
2023/02/09 00:31:43;;;;;;;;;20.00;16.00;;;;;;;;117851;1177;24800;-61
2023/02/09 00:34:12;;;;;;;;;21.00;15.50;;;;;;;;117863;1178;25623;-62
2023/02/09 00:36:40;;;;;;;;;17.67;16.00;;;;;;;;117904;1181;25103;-64
2023/02/09 00:39:09;;;;;;;;;19.75;17.00;;;;;;;;118123;1176;24874;-61
2023/02/09 00:44:25;;;;;;;;;16.50;13.00;;;;;;;;118073;1183;25579;-61
2023/02/09 00:46:53;;;;;;;;;17.75;15.00;;;;;;;;118112;1177;25482;-59
2023/02/09 00:49:22;;;;;;;;;19.00;17.00;;;;;;;;118097;1176;26041;-59
2023/02/09 00:51:50;;;;;;;;;17.50;16.25;;;;;;;;117960;1177;24811;-60
2023/02/09 00:54:19;;;;;;;;;17.00;12.25;;;;;;;;117881;1190;25374;-60
2023/02/09 00:56:48;;;;;;;;;17.75;16.50;;;;;;;;117894;1179;24793;-61
2023/02/09 00:59:17;;;;;;;;;17.00;14.00;;;;;;;;117851;1177;24872;-60
2023/02/09 01:01:45;;;;;;;;;13.00;13.00;;;;;;;;117843;1177;24764;-63
2023/02/09 01:04:13;;;;;;;;;16.50;16.00;;;;;;;;117910;1177;26017;-68
2023/02/09 01:06:42;;;;;;;;;15.50;15.50;;;;;;;;117908;1177;25003;-64
2023/02/09 01:09:11;;;;;;;;;21.50;15.00;;;;;;;;117891;1190;25655;-60
2023/02/09 01:11:39;;;;;;;;;14.33;12.33;;;;;;;;117845;1177;25696;-60
2023/02/09 01:14:09;;;;;;;;;18.75;16.75;;;;;;;;117816;1190;25502;-61
2023/02/09 01:16:37;;;;;;;;;20.33;15.67;;;;;;;;117898;1177;26452;-61
2023/02/09 01:19:06;;;;;;;;;15.00;14.25;;;;;;;;117855;1177;25518;-60
2023/02/09 01:21:34;;;;;;;;;15.75;15.00;;;;;;;;117940;1188;25712;-60
2023/02/09 01:24:03;;;;;;;;;15.67;12.67;;;;;;;;117928;1177;25612;-60
2023/02/09 01:26:32;;;;;;;;;18.00;14.50;;;;;;;;118071;1187;25605;-61
2023/02/09 01:29:00;;;;;;;;;17.00;15.00;;;;;;;;117886;1178;25162;-60
2023/02/09 01:31:31;;;;;;;;;14.00;14.00;;;;;;;;118074;1187;25175;-61
2023/02/09 01:34:01;;;;;;;;;10.75;10.75;;;;;;;;117861;1177;25733;-61
2023/02/09 01:36:31;;;;;;;;;16.75;14.50;;;;;;;;118090;1184;25715;-60
2023/02/09 01:39:01;;;;;;;;;14.33;10.67;;;;;;;;117903;1181;25177;-60
2023/02/09 01:41:31;;;;;;;;;13.00;12.50;;;;;;;;117924;1180;25490;-61
2023/02/09 01:44:25;;;;;;;;;13.00;12.50;;;;;;;;118074;1178;24808;-60
2023/02/09 01:46:54;;;;;;;;;17.25;13.00;;;;;;;;118053;1178;26087;-60
2023/02/09 01:49:25;;;;;;;;;14.67;10.67;;;;;;;;117932;1190;24775;-60
2023/02/09 01:52:03;;;;;;;;;15.75;13.25;;;;;;;;117965;1190;24804;-60
2023/02/09 01:54:36;;;;;;;;;12.00;12.00;;;;;;;;118070;1178;25240;-60
2023/02/09 01:57:09;;;;;;;;;16.00;14.00;;;;;;;;118082;1176;24971;-60
2023/02/09 01:59:39;;;;;;;;;16.00;14.33;;;;;;;;118057;1188;24723;-60
2023/02/09 02:02:09;;;;;;;;;14.00;13.75;;;;;;;;118097;1180;25011;-61
2023/02/09 02:04:38;;;;;;;;;13.50;11.50;;;;;;;;118080;1190;25530;-61
2023/02/09 02:07:15;;;;;;;;;14.75;12.00;;;;;;;;117961;1179;25747;-61
2023/02/09 02:09:45;;;;;;;;;12.00;12.00;;;;;;;;118089;1176;25668;-61
2023/02/09 02:12:14;;;;;;;;;14.33;14.00;;;;;;;;117947;1181;25601;-62
2023/02/09 02:14:42;;;;;;;;;15.33;14.00;;;;;;;;117890;1180;25068;-60
2023/02/09 02:17:43;;;;;;;;;12.25;12.00;;;;;;;;117913;1179;25524;-61
2023/02/09 02:20:36;;;;;;;;;15.00;15.00;;;;;;;;117917;1177;25271;-61
2023/02/09 02:23:19;;;;;;;;;12.00;8.67;;;;;;;;117875;1178;25208;-61
2023/02/09 02:26:00;;;;;;;;;17.50;14.25;;;;;;;;117890;1179;25634;-61
2023/02/09 02:28:35;;;;;;;;;15.67;14.67;;;;;;;;117892;1177;25140;-60
2023/02/09 02:31:16;;;;;;;;;13.00;12.75;;;;;;;;117989;1177;25601;-60
2023/02/09 02:33:44;;;;;;;;;15.75;12.25;;;;;;;;118036;1178;25635;-61
2023/02/09 02:36:16;;;;;;;;;10.50;9.25;;;;;;;;118063;1183;25059;-61
2023/02/09 02:39:16;;;;;;;;;12.00;12.00;;;;;;;;118038;1190;25474;-61
2023/02/09 02:44:49;;;;;;;;;16.67;13.00;;;;;;;;118058;1190;24984;-60
2023/02/09 02:47:19;;;;;;;;;13.50;12.50;;;;;;;;117979;1183;25435;-60
2023/02/09 02:49:55;;;;;;;;;15.00;11.00;;;;;;;;117848;1181;25695;-60
2023/02/09 02:52:23;;;;;;;;;17.67;14.00;;;;;;;;117760;1190;25031;-61
2023/02/09 02:54:59;;;;;;;;;13.50;12.50;;;;;;;;117827;1178;25225;-59
2023/02/09 02:57:31;;;;;;;;;12.67;11.00;;;;;;;;117815;1177;24875;-60
2023/02/09 03:00:10;;;;;;;;;17.00;12.00;;;;;;;;117831;1190;24791;-60
2023/02/09 03:02:42;;;;;;;;;16.00;10.00;;;;;;;;118112;1177;25068;-60
2023/02/09 03:05:16;;;;;;;;;12.50;12.50;;;;;;;;117794;1179;25542;-60
2023/02/09 03:07:44;;;;;;;;;12.00;10.00;;;;;;;;117814;1179;25486;-60
2023/02/09 03:10:33;;;;;;;;;13.67;12.00;;;;;;;;117760;1191;25313;-60
2023/02/09 03:13:07;;;;;;;;;14.50;12.25;;;;;;;;117778;1177;25464;-61
2023/02/09 03:16:23;;;;;;;;;13.25;12.00;;;;;;;;117793;1177;24680;-60
2023/02/09 03:19:13;;;;;;;;;11.75;11.50;;;;;;;;117779;1192;25842;-60
2023/02/09 03:21:57;;;;;;;;;15.50;13.75;;;;;;;;117998;1176;25548;-60
2023/02/09 03:25:00;;;;;;;;;11.67;10.33;;;;;;;;118070;1176;25468;-60
2023/02/09 03:27:44;;;;;;;;;13.50;11.75;;;;;;;;118129;1178;25687;-61
2023/02/09 03:30:15;;;;;;;;;11.67;10.67;;;;;;;;118127;1187;24692;-60
2023/02/09 03:32:45;;;;;;;;;12.75;12.75;;;;;;;;118118;1177;25037;-60
2023/02/09 03:35:17;;;;;;;;;15.00;12.67;;;;;;;;118131;1176;25616;-60
2023/02/09 03:37:45;;;;;;;;;12.50;11.50;;;;;;;;118116;1180;25547;-61
2023/02/09 03:40:13;;;;;;;;;18.00;13.00;;;;;;;;118108;1190;24734;-59
2023/02/09 03:42:42;;;;;;;;;13.75;11.25;;;;;;;;117883;1180;25119;-60
2023/02/09 03:45:11;;;;;;;;;11.67;10.00;;;;;;;;118066;1190;25157;-60
2023/02/09 03:47:39;;;;;;;;;10.00;10.00;;;;;;;;117860;1186;25012;-60
2023/02/09 03:50:08;;;;;;;;;13.67;11.00;;;;;;;;118121;1178;24961;-60
2023/02/09 03:52:37;;;;;;;;;12.00;12.00;;;;;;;;118083;1183;25303;-61
2023/02/09 03:55:06;;;;;;;;;11.00;11.00;;;;;;;;118113;1187;25651;-61
2023/02/09 03:57:35;;;;;;;;;13.00;11.00;;;;;;;;118076;1190;24867;-60
2023/02/09 04:00:05;;;;;;;;;11.00;11.00;;;;;;;;117914;1177;25062;-63
2023/02/09 04:02:34;;;;;;;;;12.75;10.25;;;;;;;;118036;1190;25496;-62
2023/02/09 04:05:02;;;;;;;;;12.50;10.75;;;;;;;;117829;1180;25443;-62
2023/02/09 04:07:33;;;;;;;;;13.25;12.50;;;;;;;;117872;1178;26461;-60
2023/02/09 04:10:02;;;;;;;;;14.00;10.67;;;;;;;;117805;1180;25386;-58
2023/02/09 04:12:30;;;;;;;;;17.50;13.50;;;;;;;;118138;1177;24673;-60
2023/02/09 04:14:59;;;;;;;;;13.50;13.00;;;;;;;;118077;1177;25455;-60
2023/02/09 04:17:27;;;;;;;;;12.67;11.67;;;;;;;;118045;1178;24826;-60
2023/02/09 04:19:55;;;;;;;;;10.00;10.00;;;;;;;;118122;1177;26446;-60
2023/02/09 04:22:24;;;;;;;;;12.00;10.33;;;;;;;;117797;1180;25190;-61
2023/02/09 04:24:52;;;;;;;;;12.50;12.00;;;;;;;;117993;1190;25125;-60
2023/02/09 04:27:21;;;;;;;;;16.50;15.50;;;;;;;;118037;1176;25442;-61
2023/02/09 04:29:49;;;;;;;;;11.00;9.00;;;;;;;;118061;1184;26306;-62
2023/02/09 04:32:17;;;;;;;;;13.67;12.00;;;;;;;;118049;1177;25588;-61
2023/02/09 04:34:46;;;;;;;;;17.25;12.75;;;;;;;;118076;1176;25120;-61
2023/02/09 04:37:14;;;;;;;;;15.33;10.67;;;;;;;;118008;1177;25665;-61
2023/02/09 04:39:43;;;;;;;;;9.00;8.67;;;;;;;;117876;1178;25155;-61
2023/02/09 04:42:11;;;;;;;;;14.67;11.00;;;;;;;;117796;1190;25085;-61
2023/02/09 04:44:40;;;;;;;;;13.00;11.00;;;;;;;;117822;1190;25601;-60
2023/02/09 04:47:08;;;;;;;;;12.00;10.00;;;;;;;;117822;1177;24689;-60
2023/02/09 04:49:37;;;;;;;;;12.33;11.67;;;;;;;;117809;1177;24901;-60
2023/02/09 04:52:05;;;;;;;;;8.50;7.50;;;;;;;;117809;1190;25364;-60
2023/02/09 04:54:34;;;;;;;;;12.00;11.75;;;;;;;;117816;1184;24926;-61
2023/02/09 04:59:49;;;;;;;;;13.00;12.00;;;;;;;;117865;1177;25712;-62
2023/02/09 05:02:18;;;;;;;;;11.50;10.00;;;;;;;;117801;1180;24842;-59
2023/02/09 05:04:47;;;;;;;;;8.67;7.67;;;;;;;;117819;1190;25291;-59
2023/02/09 05:07:15;;;;;;;;;10.00;10.00;;;;;;;;117796;1187;26233;-59
2023/02/09 05:09:44;;;;;;;;;15.00;11.75;;;;;;;;117820;1177;25603;-60
2023/02/09 05:12:12;;;;;;;;;11.00;9.00;;;;;;;;117820;1182;24809;-59
2023/02/09 05:14:41;;;;;;;;;13.67;10.67;;;;;;;;117648;1181;25368;-60
2023/02/09 05:17:09;;;;;;;;;13.00;11.25;;;;;;;;117979;1190;27001;-60
2023/02/09 05:19:38;;;;;;;;;12.25;9.50;;;;;;;;117994;1190;25649;-60
2023/02/09 05:22:06;;;;;;;;;11.67;9.00;;;;;;;;117976;1190;25182;-61
2023/02/09 05:24:35;;;;;;;;;12.00;10.67;;;;;;;;118010;1177;25509;-61
2023/02/09 05:27:03;;;;;;;;;16.50;12.50;;;;;;;;117983;1177;24778;-61
2023/02/09 05:29:31;;;;;;;;;14.00;11.33;;;;;;;;117864;1177;25340;-61
2023/02/09 05:32:00;;;;;;;;;11.67;9.33;;;;;;;;118011;1186;25386;-61
2023/02/09 05:34:29;;;;;;;;;13.67;9.33;;;;;;;;117958;1176;24959;-64
2023/02/09 05:36:57;;;;;;;;;10.50;9.25;;;;;;;;117814;1177;25806;-60
2023/02/09 05:39:26;;;;;;;;;14.00;12.00;;;;;;;;117842;1187;24870;-60
2023/02/09 05:44:49;;;;;;;;;11.67;9.33;;;;;;;;117826;1177;24922;-59
2023/02/09 05:47:20;;;;;;;;;14.00;12.67;;;;;;;;117875;1178;25138;-59
2023/02/09 05:49:48;;;;;;;;;13.50;12.25;;;;;;;;117789;1178;25496;-59
2023/02/09 05:52:17;;;;;;;;;14.00;12.33;;;;;;;;117904;1190;25425;-59
2023/02/09 05:54:47;;;;;;;;;14.50;13.25;;;;;;;;117932;1177;25403;-59
2023/02/09 05:57:16;;;;;;;;;14.67;12.33;;;;;;;;117910;1183;25178;-59
2023/02/09 05:59:44;;;;;;;;;12.75;11.00;;;;;;;;117858;1179;25281;-59
2023/02/09 06:02:12;;;;;;;;;6.50;5.00;;;;;;;;117981;1184;25504;-60
2023/02/09 06:04:41;;;;;;;;;16.00;12.00;;;;;;;;117840;1179;25503;-60
2023/02/09 06:07:10;;;;;;;;;12.67;10.33;;;;;;;;117827;1180;25070;-57
2023/02/09 06:09:39;;;;;;;;;15.67;13.00;;;;;;;;117920;1190;24847;-60
2023/02/09 06:12:07;;;;;;;;;12.00;10.25;;;;;;;;118016;1177;25085;-61
2023/02/09 06:14:36;;;;;;;;;11.50;11.00;;;;;;;;117861;1190;25234;-60
2023/02/09 06:17:04;;;;;;;;;13.75;12.25;;;;;;;;117946;1187;24838;-60
2023/02/09 06:19:33;;;;;;;;;18.33;13.00;;;;;;;;117983;1179;25562;-60
2023/02/09 06:22:01;;;;;;;;;10.75;9.75;;;;;;;;117863;1182;25369;-61
2023/02/09 06:24:30;;;;;;;;;14.25;13.25;;;;;;;;117940;1178;25329;-61
2023/02/09 06:26:58;;;;;;;;;16.25;14.00;;;;;;;;117929;1183;25328;-61
2023/02/09 06:29:27;;;;;;;;;12.75;12.25;;;;;;;;117974;1176;25276;-61
2023/02/09 06:31:55;;;;;;;;;16.67;12.67;;;;;;;;118065;1177;25419;-60
2023/02/09 06:34:24;;;;;;;;;18.00;12.00;;;;;;;;117932;1183;24883;-60
2023/02/09 06:36:53;;;;;;;;;16.00;11.33;;;;;;;;117806;1185;25249;-60
2023/02/09 06:39:23;;;;;;;;;14.33;14.33;;;;;;;;118013;1177;25521;-59
2023/02/09 06:41:51;;;;;;;;;14.50;13.00;;;;;;;;118071;1177;24907;-59
2023/02/09 06:44:20;;;;;;;;;17.00;14.00;;;;;;;;117906;1179;25044;-59
2023/02/09 06:46:48;;;;;;;;;15.75;11.25;;;;;;;;118069;1190;24990;-60
2023/02/09 06:49:17;;;;;;;;;18.33;15.67;;;;;;;;117880;1177;25106;-60
2023/02/09 06:51:46;;;;;;;;;16.00;13.00;;;;;;;;117941;1190;25277;-59
2023/02/09 06:54:15;;;;;;;;;14.50;11.50;;;;;;;;117990;1178;25720;-60
2023/02/09 06:56:43;;;;;;;;;13.67;12.67;;;;;;;;118036;1176;25115;-59
2023/02/09 06:59:12;;;;;;;;;14.67;12.00;;;;;;;;117992;1184;25315;-59
2023/02/09 07:01:41;;;;;;;;;11.50;11.50;;;;;;;;117889;1180;25480;-60
2023/02/09 07:04:09;;;;;;;;;14.00;12.00;;;;;;;;117831;1190;25630;-60
2023/02/09 07:06:38;;;;;;;;;13.00;12.50;;;;;;;;118066;1183;25707;-59
2023/02/09 07:09:06;;;;;;;;;15.67;12.00;;;;;;;;118096;1177;25253;-60
2023/02/09 07:11:35;;;;;;;;;16.00;13.25;;;;;;;;117991;1177;25256;-59
2023/02/09 07:14:04;;;;;;;;;15.00;12.00;;;;;;;;117904;1182;26129;-59
2023/02/09 07:16:32;;;;;;;;;13.67;12.67;;;;;;;;117916;1177;24922;-60
2023/02/09 07:19:01;;;;;;;;;14.33;10.00;;;;;;;;117857;1177;25682;-67
2023/02/09 07:21:29;;;;;;;;;26.50;20.00;;;;;;;;118039;1190;24819;-68
2023/02/09 07:23:58;;;;;;;;;30.00;25.00;;;;;;;;117972;1178;24816;-68
2023/02/09 07:26:26;;;;;;;;;29.50;23.00;;;;;;;;117950;1183;25169;-68
2023/02/09 07:28:55;;;;;;;;;29.33;23.67;;;;;;;;117795;1177;25231;-68
2023/02/09 07:31:25;;;;;;;;;28.00;26.00;;;;;;;;117804;1184;25146;-68
2023/02/09 07:33:55;;;;;;;;;30.50;25.50;;;;;;;;117849;1179;25358;-67
2023/02/09 07:36:24;;;;;;;;;33.33;29.33;;;;;;;;118006;1177;25378;-71
2023/02/09 07:38:54;;;;;;;;;27.33;25.00;;;;;;;;117983;1177;25465;-69
2023/02/09 07:41:24;;;;;;;;;21.00;19.67;;;;;;;;117838;1179;25305;-69
2023/02/09 07:43:54;;;;;;;;;22.33;17.67;;;;;;;;117980;1190;24703;-69
2023/02/09 07:46:24;;;;;;;;;20.00;16.00;;;;;;;;117950;1178;25394;-65
2023/02/09 07:48:52;;;;;;;;;22.67;20.00;;;;;;;;117994;1183;25263;-63
2023/02/09 07:51:24;;;;;;;;;25.00;20.00;;;;;;;;117975;1177;25109;-72
2023/02/09 07:53:53;;;;;;;;;24.00;18.67;;;;;;;;117894;1184;24813;-68
2023/02/09 07:56:22;;;;;;;;;22.33;19.67;;;;;;;;117840;1191;25478;-69
2023/02/09 07:58:52;;;;;;;;;19.00;19.00;;;;;;;;117869;1190;24727;-68
2023/02/09 08:01:21;;;;;;;;;27.33;20.67;;;;;;;;117934;1177;25677;-70
2023/02/09 08:03:50;;;;;;;;;22.00;18.50;;;;;;;;117829;1190;24901;-70
2023/02/09 08:06:33;;;;;;;;;19.00;16.00;;;;;;;;117936;1177;25412;-69
2023/02/09 08:09:12;;;;;;;;;22.00;22.00;;;;;;;;117913;1178;25001;-69
2023/02/09 08:11:56;;;;;;;;;22.67;18.00;;;;;;;;117882;1177;25327;-66
2023/02/09 08:14:28;;;;;;;;;19.33;18.33;;;;;;;;118081;1183;25358;-67
2023/02/09 08:17:21;;;;;;;;;24.50;20.00;;;;;;;;118042;1187;25668;-66
2023/02/09 08:20:14;;;;;;;;;20.33;17.00;;;;;;;;117851;1176;25650;-67
2023/02/09 08:22:48;;;;;;;;;24.67;15.33;;;;;;;;117885;1177;25148;-67
2023/02/09 08:25:19;;;;;;;;;20.50;16.50;;;;;;;;117933;1179;25615;-66
2023/02/09 08:27:48;;;;;;;;;26.67;20.33;;;;;;;;118095;1183;25275;-67
2023/02/09 08:30:17;;;;;;;;;23.67;19.67;;;;;;;;117957;1177;24873;-66
2023/02/09 08:32:45;;;;;;;;;16.00;16.00;;;;;;;;118078;1177;24783;-63
2023/02/09 08:35:14;;;;;;;;;22.00;15.33;;;;;;;;117971;1181;24687;-67
2023/02/09 08:37:42;;;;;;;;;20.50;17.50;;;;;;;;118141;1177;25334;-68
2023/02/09 08:40:13;;;;;;;;;27.67;20.67;;;;;;;;117970;1184;25430;-68
2023/02/09 08:42:42;;;;;;;;;19.00;19.00;;;;;;;;117959;1183;25594;-68
2023/02/09 08:45:10;;;;;;;;;27.67;19.33;;;;;;;;118115;1183;24939;-68
2023/02/09 08:47:39;;;;;;;;;20.67;16.67;;;;;;;;118090;1189;25279;-67
2023/02/09 08:50:08;;;;;;;;;21.25;19.50;;;;;;;;118075;1190;25679;-67
2023/02/09 08:52:36;;;;;;;;;21.50;17.50;;;;;;;;118094;1190;24860;-66
2023/02/09 08:55:05;;;;;;;;;22.67;19.00;;;;;;;;118048;1177;25237;-67
2023/02/09 08:57:33;;;;;;;;;21.33;15.33;;;;;;;;118165;1177;24918;-71
2023/02/09 09:00:12;;;;;;;;;24.00;20.00;;;;;;;;118096;1177;25127;-69
2023/02/09 09:02:41;;;;;;;;;26.67;21.33;;;;;;;;118147;1190;24989;-68
2023/02/09 09:05:09;;;;;;;;;21.00;18.67;;;;;;;;118061;1190;25392;-65
2023/02/09 09:07:38;;;;;;;;;21.00;20.50;;;;;;;;118096;1189;24855;-66
2023/02/09 09:10:08;;;;;;;;;22.33;19.33;;;;;;;;118101;1177;25353;-67
2023/02/09 09:12:36;;;;;;;;;19.25;16.00;;;;;;;;118119;1177;24868;-66
2023/02/09 09:15:06;;;;;;;;;17.50;15.50;;;;;;;;117880;1189;25659;-66
2023/02/09 09:17:34;;;;;;;;;18.33;16.67;;;;;;;;117830;1190;24970;-66
2023/02/09 09:20:03;;;;;;;;;22.50;18.50;;;;;;;;117859;1177;25567;-66
2023/02/09 09:22:31;;;;;;;;;20.50;19.50;;;;;;;;117831;1177;24789;-67
2023/02/09 09:25:00;;;;;;;;;15.67;15.00;;;;;;;;117832;1190;25297;-67
2023/02/09 09:27:31;;;;;;;;;20.00;16.50;;;;;;;;117901;1179;26167;-67
2023/02/09 09:30:00;;;;;;;;;18.00;16.00;;;;;;;;117815;1179;24781;-66
2023/02/09 09:32:28;;;;;;;;;18.67;16.00;;;;;;;;117901;1177;24843;-67
2023/02/09 09:34:58;;;;;;;;;24.67;20.67;;;;;;;;117959;1180;25326;-67
2023/02/09 09:37:26;;;;;;;;;20.33;17.00;;;;;;;;117928;1179;24761;-67
2023/02/09 09:39:55;;;;;;;;;22.00;16.00;;;;;;;;118069;1183;25056;-67
2023/02/09 09:42:26;;;;;;;;;23.50;18.50;;;;;;;;118065;1190;25029;-66
2023/02/09 09:44:55;;;;;;;;;15.00;15.00;;;;;;;;118051;1183;25579;-67
2023/02/09 09:47:37;;;;;;;;;18.00;16.33;;;;;;;;117896;1179;24698;-67
2023/02/09 09:50:29;;;;;;;;;17.33;16.67;;;;;;;;118037;1177;25103;-66
2023/02/09 09:53:07;;;;;;;;;21.00;18.33;;;;;;;;117983;1177;24707;-67
2023/02/09 09:55:36;;;;;;;;;21.50;16.50;;;;;;;;117873;1190;25181;-67
2023/02/09 09:58:06;;;;;;;;;20.33;19.67;;;;;;;;117877;1179;24788;-67
2023/02/09 10:00:39;;;;;;;;;16.67;14.33;;;;;;;;117923;1190;25187;-66
2023/02/09 10:03:18;;;;;;;;;15.00;15.00;;;;;;;;118075;1190;25323;-66
2023/02/09 10:05:50;;;;;;;;;22.50;16.00;;;;;;;;117909;1184;24935;-66
2023/02/09 10:08:34;;;;;;;;;20.00;18.00;;;;;;;;118084;1190;25369;-65
2023/02/09 10:11:05;;;;;;;;;19.67;15.00;;;;;;;;117922;1183;24911;-66
2023/02/09 10:13:36;;;;;;;;;22.00;18.33;;;;;;;;117858;1180;25011;-67
2023/02/09 10:16:24;;;;;;;;;20.67;17.00;;;;;;;;118049;1190;25299;-68
2023/02/09 10:18:56;;;;;;;;;23.00;22.00;;;;;;;;118062;1177;24993;-68
2023/02/09 10:21:28;;;;;;;;;19.67;17.67;;;;;;;;117903;1190;25283;-67
2023/02/09 10:23:59;;;;;;;;;22.33;17.00;;;;;;;;118058;1177;25169;-68
2023/02/09 10:26:31;;;;;;;;;19.50;15.00;;;;;;;;118133;1177;25565;-68
2023/02/09 10:29:11;;;;;;;;;13.50;12.50;;;;;;;;117833;1179;25437;-68
2023/02/09 10:31:53;;;;;;;;;20.00;13.50;;;;;;;;118124;1178;25631;-68
2023/02/09 10:34:47;;;;;;;;;16.25;15.00;;;;;;;;117928;1190;25120;-66
2023/02/09 10:37:33;;;;;;;;;21.33;17.33;;;;;;;;117950;1180;25514;-68
2023/02/09 10:40:12;;;;;;;;;18.67;18.67;;;;;;;;117866;1181;25372;-67
2023/02/09 10:42:50;;;;;;;;;22.33;20.00;;;;;;;;117880;1180;25057;-67
2023/02/09 10:45:32;;;;;;;;;13.00;13.00;;;;;;;;118082;1177;24950;-67
2023/02/09 10:48:14;;;;;;;;;21.67;20.00;;;;;;;;118093;1178;24807;-67
2023/02/09 10:50:50;;;;;;;;;22.00;15.75;;;;;;;;117903;1190;24984;-68
2023/02/09 10:53:31;;;;;;;;;18.33;16.00;;;;;;;;117918;1177;25141;-67
2023/02/09 10:56:13;;;;;;;;;20.50;17.50;;;;;;;;117875;1182;25504;-67
2023/02/09 10:58:51;;;;;;;;;25.67;20.00;;;;;;;;117844;1177;25459;-62
2023/02/09 11:01:30;;;;;;;;;32.00;25.00;;;;;;;;117829;1183;26049;-71
2023/02/09 11:04:04;;;;;;;;;27.67;23.00;;;;;;;;117845;1190;25683;-71
2023/02/09 11:06:42;;;;;;;;;32.00;24.50;;;;;;;;117938;1179;25435;-70
2023/02/09 11:09:27;;;;;;;;;32.00;28.00;;;;;;;;117846;1177;25095;-70
2023/02/09 11:11:56;;;;;;;;;24.50;22.50;;;;;;;;117874;1191;25059;-74
2023/02/09 11:14:25;;;;;;;;;33.00;24.33;;;;;;;;117851;1191;25154;-78
2023/02/09 11:17:35;;;;;;;;;39.00;31.33;;;;;;;;117916;1181;25544;-80
2023/02/09 11:20:10;;;;;;;;;34.00;27.50;;;;;;;;117889;1190;24796;-69
2023/02/09 11:22:52;;;;;;;;;32.00;28.67;;;;;;;;117854;1180;25438;-70
2023/02/09 11:25:28;;;;;;;;;34.50;28.00;;;;;;;;117869;1183;24845;-62
2023/02/09 11:28:02;;;;;;;;;29.33;25.33;;;;;;;;117849;1180;24937;-74
2023/02/09 11:30:59;;;;;;;;;28.00;25.00;;;;;;;;119889;1182;25370;-70
2023/02/09 11:34:05;;;;;;;;;25.00;21.00;;;;;;;;119865;1191;25091;-75
2023/02/09 11:36:44;;;;;;;;;31.00;27.00;;;;;;;;117853;1182;25325;-75
2023/02/09 11:39:21;;;;;;;;;29.50;24.00;;;;;;;;117627;1180;25043;-73
2023/02/09 11:45:09;;;;;;;;;33.00;23.50;;;;;;;;117874;1179;24835;-77
2023/02/09 11:47:57;;;;;;;;;24.67;21.00;;;;;;;;117859;1178;25104;-69
2023/02/09 11:50:47;;;;;;;;;25.50;19.50;;;;;;;;117930;1183;25425;-70
2023/02/09 11:53:24;;;;;;;;;25.33;22.33;;;;;;;;117959;1189;25230;-66
2023/02/09 11:55:58;;;;;;;;;22.33;22.00;;;;;;;;118053;1178;26004;-74
2023/02/09 11:58:36;;;;;;;;;18.00;14.33;;;;;;;;117882;1187;25230;-60
2023/02/09 12:01:13;;;;;;;;;29.33;24.00;;;;;;;;117938;1190;25482;-65
2023/02/09 12:04:14;;;;;;;;;24.50;22.00;;;;;;;;117860;1190;25368;-65
2023/02/09 12:07:08;;;;;;;;;29.00;19.00;;;;;;;;117894;1185;24723;-67
2023/02/09 12:10:25;;;;;;;;;22.25;19.75;;;;;;;;117952;1179;24925;-67
2023/02/09 12:12:58;;;;;;;;;29.00;22.25;;;;;;;;118067;1184;25153;-65
2023/02/09 12:15:43;;;;;;;;;22.00;18.67;;;;;;;;117955;1189;24851;-65
2023/02/09 12:18:18;;;;;;;;;23.50;21.50;;;;;;;;117965;1177;24973;-64
2023/02/09 12:20:55;;;;;;;;;23.00;20.00;;;;;;;;117883;1182;24756;-65
2023/02/09 12:23:37;;;;;;;;;25.25;20.25;;;;;;;;117948;1177;25261;-65
2023/02/09 12:26:11;;;;;;;;;26.33;21.33;;;;;;;;117988;1177;25364;-63
2023/02/09 12:28:42;;;;;;;;;20.00;17.00;;;;;;;;117867;1177;24939;-64
2023/02/09 12:31:14;;;;;;;;;23.00;20.00;;;;;;;;117939;1177;25387;-71
2023/02/09 12:33:46;;;;;;;;;19.50;16.50;;;;;;;;117938;1187;24846;-66
2023/02/09 12:36:14;;;;;;;;;25.00;18.00;;;;;;;;118014;1183;24983;-64
2023/02/09 12:38:49;;;;;;;;;22.67;17.00;;;;;;;;117878;1186;25304;-67
2023/02/09 12:41:25;;;;;;;;;22.25;18.75;;;;;;;;117918;1190;24718;-66
2023/02/09 12:44:18;;;;;;;;;23.00;20.00;;;;;;;;117998;1190;25645;-64
2023/02/09 12:46:51;;;;;;;;;17.33;14.00;;;;;;;;118014;1177;24819;-66
2023/02/09 12:49:25;;;;;;;;;20.00;18.00;;;;;;;;118017;1181;24845;-68
2023/02/09 12:52:00;;;;;;;;;23.00;16.00;;;;;;;;117818;1184;25282;-68
2023/02/09 12:54:51;;;;;;;;;17.50;15.00;;;;;;;;117863;1186;25188;-68
2023/02/09 12:57:20;;;;;;;;;20.00;15.67;;;;;;;;117882;1177;25628;-67
2023/02/09 12:59:55;;;;;;;;;25.00;19.50;;;;;;;;117994;1183;24777;-65
2023/02/09 13:02:45;;;;;;;;;19.00;18.00;;;;;;;;117933;1177;25172;-65
2023/02/09 13:05:18;;;;;;;;;17.50;15.00;;;;;;;;117972;1177;25272;-65
2023/02/09 13:08:07;;;;;;;;;20.67;18.67;;;;;;;;117972;1186;25173;-65
2023/02/09 13:11:03;;;;;;;;;18.00;15.00;;;;;;;;117960;1187;25019;-65
2023/02/09 13:13:44;;;;;;;;;15.00;15.00;;;;;;;;117922;1190;25265;-64
2023/02/09 13:16:35;;;;;;;;;20.00;16.00;;;;;;;;117869;1177;24767;-67
2023/02/09 13:19:22;;;;;;;;;20.00;19.25;;;;;;;;117952;1177;25223;-64
2023/02/09 13:22:15;;;;;;;;;21.50;17.75;;;;;;;;118015;1177;25405;-65
2023/02/09 13:24:52;;;;;;;;;21.00;17.00;;;;;;;;117914;1177;24817;-64
2023/02/09 13:27:22;;;;;;;;;19.50;16.00;;;;;;;;117906;1189;24833;-65
2023/02/09 13:29:56;;;;;;;;;21.00;20.00;;;;;;;;118022;1177;25043;-66
2023/02/09 13:32:56;;;;;;;;;19.50;16.25;;;;;;;;118002;1176;25015;-64
2023/02/09 13:35:30;;;;;;;;;21.33;19.00;;;;;;;;117905;1190;25098;-67
2023/02/09 13:38:14;;;;;;;;;15.50;13.50;;;;;;;;117862;1179;25158;-71
2023/02/09 13:40:46;;;;;;;;;23.00;17.00;;;;;;;;117920;1177;25126;-68
2023/02/09 13:43:24;;;;;;;;;18.00;17.00;;;;;;;;117825;1190;26045;-74
2023/02/09 13:45:54;;;;;;;;;20.33;15.00;;;;;;;;117902;1190;24929;-79
2023/02/09 13:48:43;;;;;;;;;18.00;16.25;;;;;;;;118019;1184;25120;-74
2023/02/09 13:51:17;;;;;;;;;18.00;13.50;;;;;;;;118036;1188;25010;-68
2023/02/09 13:53:58;;;;;;;;;15.33;13.33;;;;;;;;118045;1177;25194;-71
2023/02/09 13:56:27;;;;;;;;;21.00;15.00;;;;;;;;118057;1178;25277;-76
2023/02/09 13:58:56;;;;;;;;;20.00;17.33;;;;;;;;117974;1177;24817;-72
2023/02/09 14:01:29;;;;;;;;;15.50;15.00;;;;;;;;117989;1177;25662;-69
2023/02/09 14:04:22;;;;;;;;;21.00;19.33;;;;;;;;117918;1179;25477;-65
2023/02/09 14:07:00;;;;;;;;;15.50;15.50;;;;;;;;117850;1178;24918;-73
2023/02/09 14:09:32;;;;;;;;;16.33;13.00;;;;;;;;117991;1177;25305;-65
2023/02/09 14:12:09;;;;;;;;;19.00;16.00;;;;;;;;118013;1176;24840;-65
2023/02/09 14:17:34;;;;;;;;;22.00;21.00;;;;;;;;117951;1190;25168;-64
2023/02/09 14:20:15;;;;;;;;;21.33;19.00;;;;;;;;118027;1177;25511;-64
2023/02/09 14:22:43;;;;;;;;;19.25;16.75;;;;;;;;117930;1183;25584;-63
2023/02/09 14:25:12;;;;;;;;;22.00;16.00;;;;;;;;118081;1177;24942;-66
2023/02/09 14:27:44;;;;;;;;;18.67;15.00;;;;;;;;117950;1177;25304;-66
2023/02/09 14:30:24;;;;;;;;;18.00;17.00;;;;;;;;117919;1180;26373;-68
2023/02/09 14:32:54;;;;;;;;;21.00;16.67;;;;;;;;117813;1179;25639;-67
2023/02/09 14:35:41;;;;;;;;;21.67;18.33;;;;;;;;117925;1187;25741;-75
2023/02/09 14:38:33;;;;;;;;;20.00;17.67;;;;;;;;117982;1177;25522;-65
2023/02/09 14:41:28;;;;;;;;;21.33;18.00;;;;;;;;118170;1176;24926;-66
2023/02/09 14:44:00;;;;;;;;;18.00;15.67;;;;;;;;117793;1179;25565;-70
2023/02/09 14:46:46;;;;;;;;;17.50;16.25;;;;;;;;118115;1177;25050;-75
2023/02/09 14:49:15;;;;;;;;;25.00;18.00;;;;;;;;117933;1190;25115;-74
2023/02/09 14:51:48;;;;;;;;;24.00;20.67;;;;;;;;117886;1187;24902;-76
2023/02/09 14:54:25;;;;;;;;;18.67;18.00;;;;;;;;118075;1177;25132;-72
2023/02/09 14:56:56;;;;;;;;;24.67;16.67;;;;;;;;117825;1183;25688;-68
2023/02/09 14:59:26;;;;;;;;;21.00;19.50;;;;;;;;117902;1190;24834;-69
2023/02/09 15:01:54;;;;;;;;;19.50;19.50;;;;;;;;117915;1177;25085;-67
2023/02/09 15:04:23;;;;;;;;;22.00;21.00;;;;;;;;117914;1181;25227;-67